sensor_id;sensor_type;location;lat;lon;timestamp;temperature;humidity
12815;DHT22;6472;52.328;13.070;2024-01-27T00:01:30;4.90;99.90
12815;DHT22;6472;52.328;13.070;2024-01-27T00:03:58;4.90;99.90
12815;DHT22;6472;52.328;13.070;2024-01-27T00:06:26;4.90;99.90
12815;DHT22;6472;52.328;13.070;2024-01-27T00:08:54;4.90;99.90
12815;DHT22;6472;52.328;13.070;2024-01-27T00:11:22;4.90;99.90
12815;DHT22;6472;52.328;13.070;2024-01-27T00:13:53;4.80;99.90
12815;DHT22;6472;52.328;13.070;2024-01-27T00:16:21;4.80;99.90
12815;DHT22;6472;52.328;13.070;2024-01-27T00:18:51;4.90;99.90
12815;DHT22;6472;52.328;13.070;2024-01-27T00:21:19;4.80;99.90
12815;DHT22;6472;52.328;13.070;2024-01-27T00:23:47;4.80;99.90
12815;DHT22;6472;52.328;13.070;2024-01-27T00:26:15;4.90;99.90
12815;DHT22;6472;52.328;13.070;2024-01-27T00:28:43;4.80;99.90
12815;DHT22;6472;52.328;13.070;2024-01-27T00:31:11;4.80;99.90
12815;DHT22;6472;52.328;13.070;2024-01-27T00:33:39;4.90;99.90
12815;DHT22;6472;52.328;13.070;2024-01-27T00:36:09;4.90;99.90
12815;DHT22;6472;52.328;13.070;2024-01-27T00:38:37;4.90;99.90
12815;DHT22;6472;52.328;13.070;2024-01-27T00:41:06;4.80;99.90
12815;DHT22;6472;52.328;13.070;2024-01-27T00:43:36;4.80;99.90
12815;DHT22;6472;52.328;13.070;2024-01-27T00:46:04;4.90;99.90
12815;DHT22;6472;52.328;13.070;2024-01-27T00:48:32;4.90;99.90
12815;DHT22;6472;52.328;13.070;2024-01-27T00:51:00;4.80;99.90
12815;DHT22;6472;52.328;13.070;2024-01-27T00:53:29;4.80;99.90
12815;DHT22;6472;52.328;13.070;2024-01-27T00:55:57;4.70;99.90
12815;DHT22;6472;52.328;13.070;2024-01-27T00:58:25;4.80;99.90
12815;DHT22;6472;52.328;13.070;2024-01-27T01:00:53;4.80;99.90
12815;DHT22;6472;52.328;13.070;2024-01-27T01:03:21;4.80;99.90
12815;DHT22;6472;52.328;13.070;2024-01-27T01:05:49;4.80;99.90
12815;DHT22;6472;52.328;13.070;2024-01-27T01:08:17;4.80;99.90
12815;DHT22;6472;52.328;13.070;2024-01-27T01:10:47;4.80;99.90
12815;DHT22;6472;52.328;13.070;2024-01-27T01:13:15;4.80;99.90
12815;DHT22;6472;52.328;13.070;2024-01-27T01:15:43;4.70;99.90
12815;DHT22;6472;52.328;13.070;2024-01-27T01:18:11;4.70;99.90
12815;DHT22;6472;52.328;13.070;2024-01-27T01:20:39;4.80;99.90
12815;DHT22;6472;52.328;13.070;2024-01-27T01:23:08;4.80;99.90
12815;DHT22;6472;52.328;13.070;2024-01-27T01:25:36;4.80;99.90
12815;DHT22;6472;52.328;13.070;2024-01-27T01:28:05;4.80;99.90
12815;DHT22;6472;52.328;13.070;2024-01-27T01:30:33;4.80;99.90
12815;DHT22;6472;52.328;13.070;2024-01-27T01:33:01;4.80;99.90
12815;DHT22;6472;52.328;13.070;2024-01-27T01:35:30;4.80;99.90
12815;DHT22;6472;52.328;13.070;2024-01-27T01:37:58;4.80;99.90
12815;DHT22;6472;52.328;13.070;2024-01-27T01:40:26;4.80;99.90
12815;DHT22;6472;52.328;13.070;2024-01-27T01:42:54;4.80;99.90
12815;DHT22;6472;52.328;13.070;2024-01-27T01:45:23;4.80;99.90
12815;DHT22;6472;52.328;13.070;2024-01-27T01:47:52;4.70;99.90
12815;DHT22;6472;52.328;13.070;2024-01-27T01:50:20;4.70;99.90
12815;DHT22;6472;52.328;13.070;2024-01-27T01:52:49;4.70;99.90
12815;DHT22;6472;52.328;13.070;2024-01-27T01:55:19;4.70;99.90
12815;DHT22;6472;52.328;13.070;2024-01-27T01:57:48;4.70;99.90
12815;DHT22;6472;52.328;13.070;2024-01-27T02:00:16;4.70;99.90
12815;DHT22;6472;52.328;13.070;2024-01-27T02:02:46;4.80;99.90
12815;DHT22;6472;52.328;13.070;2024-01-27T02:05:14;4.80;99.90
12815;DHT22;6472;52.328;13.070;2024-01-27T02:07:42;4.80;99.90
12815;DHT22;6472;52.328;13.070;2024-01-27T02:10:13;4.80;99.90
12815;DHT22;6472;52.328;13.070;2024-01-27T02:12:42;4.70;99.90
12815;DHT22;6472;52.328;13.070;2024-01-27T02:15:11;4.80;99.90
12815;DHT22;6472;52.328;13.070;2024-01-27T02:17:40;4.80;99.90
12815;DHT22;6472;52.328;13.070;2024-01-27T02:20:10;4.80;99.90
12815;DHT22;6472;52.328;13.070;2024-01-27T02:22:38;4.70;99.90
12815;DHT22;6472;52.328;13.070;2024-01-27T02:25:08;4.70;99.90
12815;DHT22;6472;52.328;13.070;2024-01-27T02:27:36;4.60;99.90
12815;DHT22;6472;52.328;13.070;2024-01-27T02:30:05;4.60;99.90
12815;DHT22;6472;52.328;13.070;2024-01-27T02:32:34;4.50;99.90
12815;DHT22;6472;52.328;13.070;2024-01-27T02:35:02;4.40;99.90
12815;DHT22;6472;52.328;13.070;2024-01-27T02:37:30;4.30;99.90
12815;DHT22;6472;52.328;13.070;2024-01-27T02:39:58;4.20;99.90
12815;DHT22;6472;52.328;13.070;2024-01-27T02:42:27;4.20;99.90
12815;DHT22;6472;52.328;13.070;2024-01-27T02:44:55;4.20;99.90
12815;DHT22;6472;52.328;13.070;2024-01-27T02:47:23;4.20;99.90
12815;DHT22;6472;52.328;13.070;2024-01-27T02:49:51;4.20;99.90
12815;DHT22;6472;52.328;13.070;2024-01-27T02:52:20;4.20;99.90
12815;DHT22;6472;52.328;13.070;2024-01-27T02:54:48;4.20;99.90
12815;DHT22;6472;52.328;13.070;2024-01-27T02:57:15;4.20;99.90
12815;DHT22;6472;52.328;13.070;2024-01-27T02:59:46;4.20;99.90
12815;DHT22;6472;52.328;13.070;2024-01-27T03:02:14;4.10;99.90
12815;DHT22;6472;52.328;13.070;2024-01-27T03:04:42;4.10;99.90
12815;DHT22;6472;52.328;13.070;2024-01-27T03:07:10;4.00;99.90
12815;DHT22;6472;52.328;13.070;2024-01-27T03:09:38;4.00;99.90
12815;DHT22;6472;52.328;13.070;2024-01-27T03:12:07;4.00;99.90
12815;DHT22;6472;52.328;13.070;2024-01-27T03:14:35;3.90;99.90
12815;DHT22;6472;52.328;13.070;2024-01-27T03:17:05;3.90;99.90
12815;DHT22;6472;52.328;13.070;2024-01-27T03:19:34;3.90;99.90
12815;DHT22;6472;52.328;13.070;2024-01-27T03:22:02;3.90;99.90
12815;DHT22;6472;52.328;13.070;2024-01-27T03:24:30;3.80;99.90
12815;DHT22;6472;52.328;13.070;2024-01-27T03:26:58;3.90;99.90
12815;DHT22;6472;52.328;13.070;2024-01-27T03:29:26;3.90;99.90
12815;DHT22;6472;52.328;13.070;2024-01-27T03:31:54;3.90;99.90
12815;DHT22;6472;52.328;13.070;2024-01-27T03:34:24;3.80;99.90
12815;DHT22;6472;52.328;13.070;2024-01-27T03:36:54;3.80;99.90
12815;DHT22;6472;52.328;13.070;2024-01-27T03:39:22;3.80;99.90
12815;DHT22;6472;52.328;13.070;2024-01-27T03:41:50;3.80;99.90
12815;DHT22;6472;52.328;13.070;2024-01-27T03:44:19;3.80;99.90
12815;DHT22;6472;52.328;13.070;2024-01-27T03:46:47;3.90;99.90
12815;DHT22;6472;52.328;13.070;2024-01-27T03:49:15;3.80;99.90
12815;DHT22;6472;52.328;13.070;2024-01-27T03:51:45;3.80;99.90
12815;DHT22;6472;52.328;13.070;2024-01-27T03:54:13;3.70;99.90
12815;DHT22;6472;52.328;13.070;2024-01-27T03:56:41;3.70;99.90
12815;DHT22;6472;52.328;13.070;2024-01-27T03:59:09;3.70;99.90
12815;DHT22;6472;52.328;13.070;2024-01-27T04:01:38;3.70;99.90
12815;DHT22;6472;52.328;13.070;2024-01-27T04:04:06;3.60;99.90
12815;DHT22;6472;52.328;13.070;2024-01-27T04:06:37;3.70;99.90
12815;DHT22;6472;52.328;13.070;2024-01-27T04:09:07;3.70;99.90
12815;DHT22;6472;52.328;13.070;2024-01-27T04:11:37;3.70;99.90
12815;DHT22;6472;52.328;13.070;2024-01-27T04:14:06;3.70;99.90
12815;DHT22;6472;52.328;13.070;2024-01-27T04:16:35;3.60;99.90
12815;DHT22;6472;52.328;13.070;2024-01-27T04:19:09;3.70;99.90
12815;DHT22;6472;52.328;13.070;2024-01-27T04:21:37;3.70;99.90
12815;DHT22;6472;52.328;13.070;2024-01-27T04:24:06;3.80;99.90
12815;DHT22;6472;52.328;13.070;2024-01-27T04:26:34;3.80;99.90
12815;DHT22;6472;52.328;13.070;2024-01-27T04:29:02;3.70;99.90
12815;DHT22;6472;52.328;13.070;2024-01-27T04:31:30;3.70;99.90
12815;DHT22;6472;52.328;13.070;2024-01-27T04:33:58;3.70;99.90
12815;DHT22;6472;52.328;13.070;2024-01-27T04:36:27;3.60;99.90
12815;DHT22;6472;52.328;13.070;2024-01-27T04:38:56;3.50;99.90
12815;DHT22;6472;52.328;13.070;2024-01-27T04:41:26;3.40;99.90
12815;DHT22;6472;52.328;13.070;2024-01-27T04:43:54;3.50;99.90
12815;DHT22;6472;52.328;13.070;2024-01-27T04:46:23;3.50;99.90
12815;DHT22;6472;52.328;13.070;2024-01-27T04:48:51;3.50;99.90
12815;DHT22;6472;52.328;13.070;2024-01-27T04:51:19;3.50;99.90
12815;DHT22;6472;52.328;13.070;2024-01-27T04:53:47;3.50;99.90
12815;DHT22;6472;52.328;13.070;2024-01-27T04:56:15;3.60;99.90
12815;DHT22;6472;52.328;13.070;2024-01-27T04:58:44;3.50;99.90
12815;DHT22;6472;52.328;13.070;2024-01-27T05:01:12;3.40;99.90
12815;DHT22;6472;52.328;13.070;2024-01-27T05:03:40;3.60;99.90
12815;DHT22;6472;52.328;13.070;2024-01-27T05:06:08;3.60;99.90
12815;DHT22;6472;52.328;13.070;2024-01-27T05:08:37;3.70;99.90
12815;DHT22;6472;52.328;13.070;2024-01-27T05:11:06;3.60;99.90
12815;DHT22;6472;52.328;13.070;2024-01-27T05:13:34;3.70;99.90
12815;DHT22;6472;52.328;13.070;2024-01-27T05:16:06;3.70;99.90
12815;DHT22;6472;52.328;13.070;2024-01-27T05:18:34;3.90;99.90
12815;DHT22;6472;52.328;13.070;2024-01-27T05:21:03;4.00;99.90
12815;DHT22;6472;52.328;13.070;2024-01-27T05:23:31;4.00;99.90
12815;DHT22;6472;52.328;13.070;2024-01-27T05:25:59;4.00;99.90
12815;DHT22;6472;52.328;13.070;2024-01-27T05:28:27;4.10;99.90
12815;DHT22;6472;52.328;13.070;2024-01-27T05:30:55;4.20;99.90
12815;DHT22;6472;52.328;13.070;2024-01-27T05:33:24;4.20;99.90
12815;DHT22;6472;52.328;13.070;2024-01-27T05:35:52;4.20;99.90
12815;DHT22;6472;52.328;13.070;2024-01-27T05:38:20;4.30;99.90
12815;DHT22;6472;52.328;13.070;2024-01-27T05:40:48;4.20;99.90
12815;DHT22;6472;52.328;13.070;2024-01-27T05:43:17;4.20;99.90
12815;DHT22;6472;52.328;13.070;2024-01-27T05:45:46;4.20;99.90
12815;DHT22;6472;52.328;13.070;2024-01-27T05:48:14;4.20;99.90
12815;DHT22;6472;52.328;13.070;2024-01-27T05:50:43;4.30;99.90
12815;DHT22;6472;52.328;13.070;2024-01-27T05:53:11;4.30;99.90
12815;DHT22;6472;52.328;13.070;2024-01-27T05:55:39;4.30;99.90
12815;DHT22;6472;52.328;13.070;2024-01-27T05:58:07;4.30;99.90
12815;DHT22;6472;52.328;13.070;2024-01-27T06:00:35;4.30;99.90
12815;DHT22;6472;52.328;13.070;2024-01-27T06:03:03;4.30;99.90
12815;DHT22;6472;52.328;13.070;2024-01-27T06:05:32;4.40;99.90
12815;DHT22;6472;52.328;13.070;2024-01-27T06:08:01;4.30;99.90
12815;DHT22;6472;52.328;13.070;2024-01-27T06:10:29;4.30;99.90
12815;DHT22;6472;52.328;13.070;2024-01-27T06:12:57;4.40;99.90
12815;DHT22;6472;52.328;13.070;2024-01-27T06:15:25;4.40;99.90
12815;DHT22;6472;52.328;13.070;2024-01-27T06:17:53;4.40;99.90
12815;DHT22;6472;52.328;13.070;2024-01-27T06:20:22;4.50;99.90
12815;DHT22;6472;52.328;13.070;2024-01-27T06:22:50;4.40;99.90
12815;DHT22;6472;52.328;13.070;2024-01-27T06:25:20;4.50;99.90
12815;DHT22;6472;52.328;13.070;2024-01-27T06:27:48;4.50;99.90
12815;DHT22;6472;52.328;13.070;2024-01-27T06:30:16;4.50;99.90
12815;DHT22;6472;52.328;13.070;2024-01-27T06:32:45;4.50;99.90
12815;DHT22;6472;52.328;13.070;2024-01-27T06:35:15;4.50;99.90
12815;DHT22;6472;52.328;13.070;2024-01-27T06:37:43;4.40;99.90
12815;DHT22;6472;52.328;13.070;2024-01-27T06:40:12;4.50;99.90
12815;DHT22;6472;52.328;13.070;2024-01-27T06:42:42;4.50;99.90
12815;DHT22;6472;52.328;13.070;2024-01-27T06:45:11;4.50;99.90
12815;DHT22;6472;52.328;13.070;2024-01-27T06:47:40;4.50;99.90
12815;DHT22;6472;52.328;13.070;2024-01-27T06:50:08;4.50;99.90
12815;DHT22;6472;52.328;13.070;2024-01-27T06:52:38;4.50;99.90
12815;DHT22;6472;52.328;13.070;2024-01-27T06:55:07;4.50;99.90
12815;DHT22;6472;52.328;13.070;2024-01-27T06:57:37;4.50;99.90
12815;DHT22;6472;52.328;13.070;2024-01-27T07:00:09;4.50;99.90
12815;DHT22;6472;52.328;13.070;2024-01-27T07:02:41;4.50;99.90
12815;DHT22;6472;52.328;13.070;2024-01-27T07:05:10;4.60;99.90
12815;DHT22;6472;52.328;13.070;2024-01-27T07:07:39;4.60;99.90
12815;DHT22;6472;52.328;13.070;2024-01-27T07:10:11;4.50;99.90
12815;DHT22;6472;52.328;13.070;2024-01-27T07:12:40;4.50;99.90
12815;DHT22;6472;52.328;13.070;2024-01-27T07:15:14;4.50;99.90
12815;DHT22;6472;52.328;13.070;2024-01-27T07:17:43;4.60;99.90
12815;DHT22;6472;52.328;13.070;2024-01-27T07:20:11;4.60;99.90
12815;DHT22;6472;52.328;13.070;2024-01-27T07:22:40;4.50;99.90
12815;DHT22;6472;52.328;13.070;2024-01-27T07:25:08;4.60;99.90
12815;DHT22;6472;52.328;13.070;2024-01-27T07:27:36;4.70;99.90
12815;DHT22;6472;52.328;13.070;2024-01-27T07:30:06;4.70;99.90
12815;DHT22;6472;52.328;13.070;2024-01-27T07:32:37;4.80;99.90
12815;DHT22;6472;52.328;13.070;2024-01-27T07:35:08;4.80;99.90
12815;DHT22;6472;52.328;13.070;2024-01-27T07:37:38;4.70;99.90
12815;DHT22;6472;52.328;13.070;2024-01-27T07:40:08;4.80;99.90
12815;DHT22;6472;52.328;13.070;2024-01-27T07:42:37;4.90;99.90
12815;DHT22;6472;52.328;13.070;2024-01-27T07:45:05;4.90;99.90
12815;DHT22;6472;52.328;13.070;2024-01-27T07:47:36;4.90;99.90
12815;DHT22;6472;52.328;13.070;2024-01-27T07:50:05;4.90;99.90
12815;DHT22;6472;52.328;13.070;2024-01-27T07:52:33;4.90;99.90
12815;DHT22;6472;52.328;13.070;2024-01-27T07:55:02;5.00;99.90
12815;DHT22;6472;52.328;13.070;2024-01-27T07:57:30;5.00;99.90
12815;DHT22;6472;52.328;13.070;2024-01-27T07:59:59;5.00;99.90
12815;DHT22;6472;52.328;13.070;2024-01-27T08:02:27;5.00;99.90
12815;DHT22;6472;52.328;13.070;2024-01-27T08:04:56;5.10;99.90
12815;DHT22;6472;52.328;13.070;2024-01-27T08:07:24;5.00;99.90
12815;DHT22;6472;52.328;13.070;2024-01-27T08:09:52;5.00;99.90
12815;DHT22;6472;52.328;13.070;2024-01-27T08:12:20;5.10;99.90
12815;DHT22;6472;52.328;13.070;2024-01-27T08:14:48;5.10;99.90
12815;DHT22;6472;52.328;13.070;2024-01-27T08:17:16;5.10;99.90
12815;DHT22;6472;52.328;13.070;2024-01-27T08:19:44;5.10;99.90
12815;DHT22;6472;52.328;13.070;2024-01-27T08:22:14;5.30;99.90
12815;DHT22;6472;52.328;13.070;2024-01-27T08:24:42;5.20;99.90
12815;DHT22;6472;52.328;13.070;2024-01-27T08:27:10;5.20;99.90
12815;DHT22;6472;52.328;13.070;2024-01-27T08:29:38;5.30;99.90
12815;DHT22;6472;52.328;13.070;2024-01-27T08:32:07;5.40;99.90
12815;DHT22;6472;52.328;13.070;2024-01-27T08:34:36;5.40;99.90
12815;DHT22;6472;52.328;13.070;2024-01-27T08:37:17;5.50;99.90
12815;DHT22;6472;52.328;13.070;2024-01-27T08:39:45;5.50;99.90
12815;DHT22;6472;52.328;13.070;2024-01-27T08:42:13;5.40;99.90
12815;DHT22;6472;52.328;13.070;2024-01-27T08:44:41;5.50;99.90
12815;DHT22;6472;52.328;13.070;2024-01-27T08:47:10;5.50;99.90
12815;DHT22;6472;52.328;13.070;2024-01-27T08:49:38;5.50;99.90
12815;DHT22;6472;52.328;13.070;2024-01-27T08:52:07;5.50;99.90
12815;DHT22;6472;52.328;13.070;2024-01-27T08:54:36;5.50;99.90
12815;DHT22;6472;52.328;13.070;2024-01-27T08:57:04;5.50;99.90
12815;DHT22;6472;52.328;13.070;2024-01-27T08:59:32;5.60;99.90
12815;DHT22;6472;52.328;13.070;2024-01-27T09:02:02;5.50;99.90
12815;DHT22;6472;52.328;13.070;2024-01-27T09:04:31;5.60;99.90
12815;DHT22;6472;52.328;13.070;2024-01-27T09:07:00;5.60;99.90
12815;DHT22;6472;52.328;13.070;2024-01-27T09:09:28;5.60;99.90
12815;DHT22;6472;52.328;13.070;2024-01-27T09:11:58;5.60;99.90
12815;DHT22;6472;52.328;13.070;2024-01-27T09:14:26;5.70;99.90
12815;DHT22;6472;52.328;13.070;2024-01-27T09:16:54;5.70;99.90
12815;DHT22;6472;52.328;13.070;2024-01-27T09:19:22;5.70;99.90
12815;DHT22;6472;52.328;13.070;2024-01-27T09:21:50;5.70;99.90
12815;DHT22;6472;52.328;13.070;2024-01-27T09:24:18;5.80;99.90
12815;DHT22;6472;52.328;13.070;2024-01-27T09:26:46;5.90;99.90
12815;DHT22;6472;52.328;13.070;2024-01-27T09:29:15;5.80;99.90
12815;DHT22;6472;52.328;13.070;2024-01-27T09:31:44;5.90;99.90
12815;DHT22;6472;52.328;13.070;2024-01-27T09:34:12;6.00;99.90
12815;DHT22;6472;52.328;13.070;2024-01-27T09:36:40;6.10;99.90
12815;DHT22;6472;52.328;13.070;2024-01-27T09:39:08;6.00;99.90
12815;DHT22;6472;52.328;13.070;2024-01-27T09:41:36;6.10;99.90
12815;DHT22;6472;52.328;13.070;2024-01-27T09:44:05;6.10;99.90
12815;DHT22;6472;52.328;13.070;2024-01-27T09:46:34;6.20;99.90
12815;DHT22;6472;52.328;13.070;2024-01-27T09:49:02;6.10;99.90
12815;DHT22;6472;52.328;13.070;2024-01-27T09:51:31;6.30;99.90
12815;DHT22;6472;52.328;13.070;2024-01-27T09:54:01;6.30;99.90
12815;DHT22;6472;52.328;13.070;2024-01-27T09:56:29;6.50;99.90
12815;DHT22;6472;52.328;13.070;2024-01-27T09:58:57;6.60;99.90
12815;DHT22;6472;52.328;13.070;2024-01-27T10:01:26;6.60;99.90
12815;DHT22;6472;52.328;13.070;2024-01-27T10:03:57;6.70;99.90
12815;DHT22;6472;52.328;13.070;2024-01-27T10:06:26;6.70;99.90
12815;DHT22;6472;52.328;13.070;2024-01-27T10:08:55;6.60;99.90
12815;DHT22;6472;52.328;13.070;2024-01-27T10:11:23;6.70;99.90
12815;DHT22;6472;52.328;13.070;2024-01-27T10:13:55;6.50;99.90
12815;DHT22;6472;52.328;13.070;2024-01-27T10:16:26;6.40;99.90
12815;DHT22;6472;52.328;13.070;2024-01-27T10:19:02;6.50;99.90
12815;DHT22;6472;52.328;13.070;2024-01-27T10:21:30;6.60;99.90
12815;DHT22;6472;52.328;13.070;2024-01-27T10:24:00;6.60;99.90
12815;DHT22;6472;52.328;13.070;2024-01-27T10:26:30;6.70;99.90
12815;DHT22;6472;52.328;13.070;2024-01-27T10:28:59;6.60;99.90
12815;DHT22;6472;52.328;13.070;2024-01-27T10:31:28;6.60;99.90
12815;DHT22;6472;52.328;13.070;2024-01-27T10:33:57;6.50;99.90
12815;DHT22;6472;52.328;13.070;2024-01-27T10:36:37;6.60;99.90
12815;DHT22;6472;52.328;13.070;2024-01-27T10:39:14;6.60;99.90
12815;DHT22;6472;52.328;13.070;2024-01-27T10:41:44;6.60;99.90
12815;DHT22;6472;52.328;13.070;2024-01-27T10:44:14;6.60;99.90
12815;DHT22;6472;52.328;13.070;2024-01-27T10:46:43;6.70;99.90
12815;DHT22;6472;52.328;13.070;2024-01-27T10:49:13;6.80;99.90
12815;DHT22;6472;52.328;13.070;2024-01-27T10:51:46;6.60;99.90
12815;DHT22;6472;52.328;13.070;2024-01-27T10:54:23;6.40;99.90
12815;DHT22;6472;52.328;13.070;2024-01-27T10:56:53;6.50;99.90
12815;DHT22;6472;52.328;13.070;2024-01-27T10:59:22;6.50;99.90
12815;DHT22;6472;52.328;13.070;2024-01-27T11:01:52;6.50;99.90
12815;DHT22;6472;52.328;13.070;2024-01-27T11:04:21;6.50;99.90
12815;DHT22;6472;52.328;13.070;2024-01-27T11:06:52;6.50;99.90
12815;DHT22;6472;52.328;13.070;2024-01-27T11:09:21;6.40;99.90
12815;DHT22;6472;52.328;13.070;2024-01-27T11:11:49;6.50;99.90
12815;DHT22;6472;52.328;13.070;2024-01-27T11:14:17;6.40;99.90
12815;DHT22;6472;52.328;13.070;2024-01-27T11:16:45;6.30;99.90
12815;DHT22;6472;52.328;13.070;2024-01-27T11:19:17;6.40;99.90
12815;DHT22;6472;52.328;13.070;2024-01-27T11:21:45;6.60;99.90
12815;DHT22;6472;52.328;13.070;2024-01-27T11:24:16;6.70;99.90
12815;DHT22;6472;52.328;13.070;2024-01-27T11:26:45;6.60;99.90
12815;DHT22;6472;52.328;13.070;2024-01-27T11:29:13;6.70;99.90
12815;DHT22;6472;52.328;13.070;2024-01-27T11:31:46;6.70;99.90
12815;DHT22;6472;52.328;13.070;2024-01-27T11:34:17;6.80;99.90
12815;DHT22;6472;52.328;13.070;2024-01-27T11:36:47;7.00;99.90
12815;DHT22;6472;52.328;13.070;2024-01-27T11:39:26;7.10;99.90
12815;DHT22;6472;52.328;13.070;2024-01-27T11:42:04;7.00;99.90
12815;DHT22;6472;52.328;13.070;2024-01-27T11:44:34;6.70;99.90
12815;DHT22;6472;52.328;13.070;2024-01-27T11:47:04;6.50;99.90
12815;DHT22;6472;52.328;13.070;2024-01-27T11:49:33;6.20;99.90
12815;DHT22;6472;52.328;13.070;2024-01-27T11:52:02;6.30;99.90
12815;DHT22;6472;52.328;13.070;2024-01-27T11:54:32;6.40;99.90
12815;DHT22;6472;52.328;13.070;2024-01-27T11:57:01;6.50;99.90
12815;DHT22;6472;52.328;13.070;2024-01-27T11:59:29;6.40;99.90
12815;DHT22;6472;52.328;13.070;2024-01-27T12:01:56;6.40;99.90
12815;DHT22;6472;52.328;13.070;2024-01-27T12:04:24;6.50;99.90
12815;DHT22;6472;52.328;13.070;2024-01-27T12:06:53;6.50;99.90
12815;DHT22;6472;52.328;13.070;2024-01-27T12:09:21;6.60;99.90
12815;DHT22;6472;52.328;13.070;2024-01-27T12:11:51;6.50;99.90
12815;DHT22;6472;52.328;13.070;2024-01-27T12:14:20;6.50;99.90
12815;DHT22;6472;52.328;13.070;2024-01-27T12:16:48;6.50;99.90
12815;DHT22;6472;52.328;13.070;2024-01-27T12:19:16;6.50;99.90
12815;DHT22;6472;52.328;13.070;2024-01-27T12:21:48;6.50;99.90
12815;DHT22;6472;52.328;13.070;2024-01-27T12:24:16;6.60;99.90
12815;DHT22;6472;52.328;13.070;2024-01-27T12:26:48;6.70;99.90
12815;DHT22;6472;52.328;13.070;2024-01-27T12:29:19;6.70;99.90
12815;DHT22;6472;52.328;13.070;2024-01-27T12:31:48;6.80;99.90
12815;DHT22;6472;52.328;13.070;2024-01-27T12:34:17;6.90;99.90
12815;DHT22;6472;52.328;13.070;2024-01-27T12:36:47;7.00;99.90
12815;DHT22;6472;52.328;13.070;2024-01-27T12:39:18;6.90;99.90
12815;DHT22;6472;52.328;13.070;2024-01-27T12:41:48;7.00;99.90
12815;DHT22;6472;52.328;13.070;2024-01-27T12:44:17;7.00;99.90
12815;DHT22;6472;52.328;13.070;2024-01-27T12:46:45;6.80;99.90
12815;DHT22;6472;52.328;13.070;2024-01-27T12:49:13;6.70;99.90
12815;DHT22;6472;52.328;13.070;2024-01-27T12:51:42;6.80;99.90
12815;DHT22;6472;52.328;13.070;2024-01-27T12:54:11;6.80;99.90
12815;DHT22;6472;52.328;13.070;2024-01-27T12:56:39;6.90;99.90
12815;DHT22;6472;52.328;13.070;2024-01-27T12:59:07;6.80;99.90
12815;DHT22;6472;52.328;13.070;2024-01-27T13:01:36;6.70;99.90
12815;DHT22;6472;52.328;13.070;2024-01-27T13:04:05;6.70;99.90
12815;DHT22;6472;52.328;13.070;2024-01-27T13:06:33;6.70;99.90
12815;DHT22;6472;52.328;13.070;2024-01-27T13:09:01;6.70;99.90
12815;DHT22;6472;52.328;13.070;2024-01-27T13:11:29;6.60;99.90
12815;DHT22;6472;52.328;13.070;2024-01-27T13:13:57;6.60;99.90
12815;DHT22;6472;52.328;13.070;2024-01-27T13:16:25;6.70;99.90
12815;DHT22;6472;52.328;13.070;2024-01-27T13:18:55;6.70;99.90
12815;DHT22;6472;52.328;13.070;2024-01-27T13:21:23;6.60;99.90
12815;DHT22;6472;52.328;13.070;2024-01-27T13:23:51;6.70;99.90
12815;DHT22;6472;52.328;13.070;2024-01-27T13:26:19;6.70;99.90
12815;DHT22;6472;52.328;13.070;2024-01-27T13:28:50;6.80;99.90
12815;DHT22;6472;52.328;13.070;2024-01-27T13:31:18;6.80;99.90
12815;DHT22;6472;52.328;13.070;2024-01-27T13:33:46;6.80;99.90
12815;DHT22;6472;52.328;13.070;2024-01-27T13:36:17;6.80;99.90
12815;DHT22;6472;52.328;13.070;2024-01-27T13:38:45;6.90;99.90
12815;DHT22;6472;52.328;13.070;2024-01-27T13:41:13;6.90;99.90
12815;DHT22;6472;52.328;13.070;2024-01-27T13:43:42;6.80;99.90
12815;DHT22;6472;52.328;13.070;2024-01-27T13:46:10;6.80;99.90
12815;DHT22;6472;52.328;13.070;2024-01-27T13:48:38;6.80;99.90
12815;DHT22;6472;52.328;13.070;2024-01-27T13:51:07;6.90;99.90
12815;DHT22;6472;52.328;13.070;2024-01-27T13:53:36;6.90;99.90
12815;DHT22;6472;52.328;13.070;2024-01-27T13:56:13;6.90;99.90
12815;DHT22;6472;52.328;13.070;2024-01-27T13:58:42;7.00;99.90
12815;DHT22;6472;52.328;13.070;2024-01-27T14:01:10;7.00;99.90
12815;DHT22;6472;52.328;13.070;2024-01-27T14:03:38;7.00;99.90
12815;DHT22;6472;52.328;13.070;2024-01-27T14:06:07;7.00;99.90
12815;DHT22;6472;52.328;13.070;2024-01-27T14:08:41;7.00;99.90
12815;DHT22;6472;52.328;13.070;2024-01-27T14:11:09;7.00;99.90
12815;DHT22;6472;52.328;13.070;2024-01-27T14:13:37;7.10;99.90
12815;DHT22;6472;52.328;13.070;2024-01-27T14:16:06;7.20;99.90
12815;DHT22;6472;52.328;13.070;2024-01-27T14:18:34;7.10;99.90
12815;DHT22;6472;52.328;13.070;2024-01-27T14:21:02;7.20;99.90
12815;DHT22;6472;52.328;13.070;2024-01-27T14:23:31;7.20;99.90
12815;DHT22;6472;52.328;13.070;2024-01-27T14:26:01;7.20;99.90
12815;DHT22;6472;52.328;13.070;2024-01-27T14:28:29;7.20;99.90
12815;DHT22;6472;52.328;13.070;2024-01-27T14:30:57;7.20;99.90
12815;DHT22;6472;52.328;13.070;2024-01-27T14:33:25;7.20;99.90
12815;DHT22;6472;52.328;13.070;2024-01-27T14:35:53;7.10;99.90
12815;DHT22;6472;52.328;13.070;2024-01-27T14:38:21;7.20;99.90
12815;DHT22;6472;52.328;13.070;2024-01-27T14:40:49;7.20;99.90
12815;DHT22;6472;52.328;13.070;2024-01-27T14:43:19;7.20;99.90
12815;DHT22;6472;52.328;13.070;2024-01-27T14:45:47;7.10;99.90
12815;DHT22;6472;52.328;13.070;2024-01-27T14:48:15;7.10;99.90
12815;DHT22;6472;52.328;13.070;2024-01-27T14:50:46;7.00;99.90
12815;DHT22;6472;52.328;13.070;2024-01-27T14:53:19;6.90;99.90
12815;DHT22;6472;52.328;13.070;2024-01-27T14:55:47;6.90;99.90
12815;DHT22;6472;52.328;13.070;2024-01-27T14:58:15;7.00;99.90
12815;DHT22;6472;52.328;13.070;2024-01-27T15:00:45;6.90;99.90
12815;DHT22;6472;52.328;13.070;2024-01-27T15:03:20;6.80;99.90
12815;DHT22;6472;52.328;13.070;2024-01-27T15:05:48;6.80;99.90
12815;DHT22;6472;52.328;13.070;2024-01-27T15:08:16;6.70;99.90
12815;DHT22;6472;52.328;13.070;2024-01-27T15:10:45;6.50;99.90
12815;DHT22;6472;52.328;13.070;2024-01-27T15:13:14;6.60;99.90
12815;DHT22;6472;52.328;13.070;2024-01-27T15:15:45;6.60;99.90
12815;DHT22;6472;52.328;13.070;2024-01-27T15:18:13;6.60;99.90
12815;DHT22;6472;52.328;13.070;2024-01-27T15:20:43;6.50;99.90
12815;DHT22;6472;52.328;13.070;2024-01-27T15:23:10;6.40;99.90
12815;DHT22;6472;52.328;13.070;2024-01-27T15:25:39;6.20;99.90
12815;DHT22;6472;52.328;13.070;2024-01-27T15:28:08;6.10;99.90
12815;DHT22;6472;52.328;13.070;2024-01-27T15:30:36;6.00;99.90
12815;DHT22;6472;52.328;13.070;2024-01-27T15:33:05;6.00;99.90
12815;DHT22;6472;52.328;13.070;2024-01-27T15:35:33;5.80;99.90
12815;DHT22;6472;52.328;13.070;2024-01-27T15:38:06;5.80;99.90
12815;DHT22;6472;52.328;13.070;2024-01-27T15:40:35;5.80;99.90
12815;DHT22;6472;52.328;13.070;2024-01-27T15:43:03;5.70;99.90
12815;DHT22;6472;52.328;13.070;2024-01-27T15:45:31;5.60;99.90
12815;DHT22;6472;52.328;13.070;2024-01-27T15:48:00;5.70;99.90
12815;DHT22;6472;52.328;13.070;2024-01-27T15:50:29;5.60;99.90
12815;DHT22;6472;52.328;13.070;2024-01-27T15:52:59;5.50;99.90
12815;DHT22;6472;52.328;13.070;2024-01-27T15:55:29;5.50;99.90